sensor_id;sensor_type;location;lat;lon;timestamp;temperature;humidity
68691;DHT22;55675;49.588;8.640;2023-01-31T00:01:17;6.70;92.50
68691;DHT22;55675;49.588;8.640;2023-01-31T00:03:43;6.70;92.50
68691;DHT22;55675;49.588;8.640;2023-01-31T00:06:13;6.80;92.50
68691;DHT22;55675;49.588;8.640;2023-01-31T00:08:39;6.80;92.50
68691;DHT22;55675;49.588;8.640;2023-01-31T00:11:05;6.80;92.50
68691;DHT22;55675;49.588;8.640;2023-01-31T00:13:31;6.80;92.40
68691;DHT22;55675;49.588;8.640;2023-01-31T00:15:56;6.80;92.40
68691;DHT22;55675;49.588;8.640;2023-01-31T00:18:22;6.80;92.40
68691;DHT22;55675;49.588;8.640;2023-01-31T00:20:48;6.70;92.30
68691;DHT22;55675;49.588;8.640;2023-01-31T00:23:13;6.70;92.30
68691;DHT22;55675;49.588;8.640;2023-01-31T00:25:39;6.70;92.40
68691;DHT22;55675;49.588;8.640;2023-01-31T00:28:04;6.70;92.40
68691;DHT22;55675;49.588;8.640;2023-01-31T00:30:30;6.70;92.30
68691;DHT22;55675;49.588;8.640;2023-01-31T00:32:55;6.70;92.30
68691;DHT22;55675;49.588;8.640;2023-01-31T00:35:21;6.70;92.30
68691;DHT22;55675;49.588;8.640;2023-01-31T00:37:46;6.70;92.30
68691;DHT22;55675;49.588;8.640;2023-01-31T00:40:12;6.70;92.30
68691;DHT22;55675;49.588;8.640;2023-01-31T00:42:37;6.70;92.30
68691;DHT22;55675;49.588;8.640;2023-01-31T00:45:03;6.70;92.30
68691;DHT22;55675;49.588;8.640;2023-01-31T00:47:28;6.70;92.30
68691;DHT22;55675;49.588;8.640;2023-01-31T00:49:54;6.70;92.30
68691;DHT22;55675;49.588;8.640;2023-01-31T00:52:19;6.80;92.30
68691;DHT22;55675;49.588;8.640;2023-01-31T00:54:44;6.80;92.40
68691;DHT22;55675;49.588;8.640;2023-01-31T00:57:10;6.80;92.30
68691;DHT22;55675;49.588;8.640;2023-01-31T00:59:35;6.80;92.30
68691;DHT22;55675;49.588;8.640;2023-01-31T01:02:01;6.90;92.30
68691;DHT22;55675;49.588;8.640;2023-01-31T01:04:26;6.90;92.20
68691;DHT22;55675;49.588;8.640;2023-01-31T01:06:52;6.90;92.20
68691;DHT22;55675;49.588;8.640;2023-01-31T01:09:17;6.90;92.20
68691;DHT22;55675;49.588;8.640;2023-01-31T01:11:43;6.90;92.10
68691;DHT22;55675;49.588;8.640;2023-01-31T01:14:08;6.90;92.10
68691;DHT22;55675;49.588;8.640;2023-01-31T01:16:35;6.80;92.00
68691;DHT22;55675;49.588;8.640;2023-01-31T01:19:01;6.80;92.00
68691;DHT22;55675;49.588;8.640;2023-01-31T01:21:28;6.80;92.00
68691;DHT22;55675;49.588;8.640;2023-01-31T01:24:00;6.80;92.00
68691;DHT22;55675;49.588;8.640;2023-01-31T01:26:29;6.70;92.00
68691;DHT22;55675;49.588;8.640;2023-01-31T01:28:56;6.80;92.00
68691;DHT22;55675;49.588;8.640;2023-01-31T01:31:22;6.80;92.00
68691;DHT22;55675;49.588;8.640;2023-01-31T01:33:57;6.80;92.00
68691;DHT22;55675;49.588;8.640;2023-01-31T01:36:23;6.80;92.00
68691;DHT22;55675;49.588;8.640;2023-01-31T01:38:49;6.70;91.90
68691;DHT22;55675;49.588;8.640;2023-01-31T01:41:14;6.70;92.00
68691;DHT22;55675;49.588;8.640;2023-01-31T01:46:06;6.70;92.00
68691;DHT22;55675;49.588;8.640;2023-01-31T01:48:32;6.70;92.00
68691;DHT22;55675;49.588;8.640;2023-01-31T01:50:57;6.70;92.00
68691;DHT22;55675;49.588;8.640;2023-01-31T01:53:24;6.70;92.00
68691;DHT22;55675;49.588;8.640;2023-01-31T01:55:55;6.60;92.00
68691;DHT22;55675;49.588;8.640;2023-01-31T01:58:31;6.60;92.00
68691;DHT22;55675;49.588;8.640;2023-01-31T02:00:58;6.50;92.30
68691;DHT22;55675;49.588;8.640;2023-01-31T02:03:23;6.40;92.00
68691;DHT22;55675;49.588;8.640;2023-01-31T02:05:53;6.40;92.00
68691;DHT22;55675;49.588;8.640;2023-01-31T02:08:20;6.40;92.00
68691;DHT22;55675;49.588;8.640;2023-01-31T02:10:58;6.30;92.10
68691;DHT22;55675;49.588;8.640;2023-01-31T02:13:25;6.30;92.10
68691;DHT22;55675;49.588;8.640;2023-01-31T02:15:51;6.30;92.20
68691;DHT22;55675;49.588;8.640;2023-01-31T02:18:18;6.20;92.10
68691;DHT22;55675;49.588;8.640;2023-01-31T02:23:19;6.10;92.50
68691;DHT22;55675;49.588;8.640;2023-01-31T02:26:03;6.10;92.20
68691;DHT22;55675;49.588;8.640;2023-01-31T02:34:15;6.10;92.30
68691;DHT22;55675;49.588;8.640;2023-01-31T02:37:04;6.10;92.30
68691;DHT22;55675;49.588;8.640;2023-01-31T02:39:36;6.10;92.30
68691;DHT22;55675;49.588;8.640;2023-01-31T02:42:23;6.10;92.20
68691;DHT22;55675;49.588;8.640;2023-01-31T02:44:53;6.10;92.30
68691;DHT22;55675;49.588;8.640;2023-01-31T02:50:28;6.10;92.30
68691;DHT22;55675;49.588;8.640;2023-01-31T02:52:57;6.10;92.30
68691;DHT22;55675;49.588;8.640;2023-01-31T02:55:28;6.00;92.20
68691;DHT22;55675;49.588;8.640;2023-01-31T02:58:14;6.00;92.20
68691;DHT22;55675;49.588;8.640;2023-01-31T03:00:40;6.00;92.20
68691;DHT22;55675;49.588;8.640;2023-01-31T03:03:08;5.90;92.20
68691;DHT22;55675;49.588;8.640;2023-01-31T03:05:37;5.80;92.20
68691;DHT22;55675;49.588;8.640;2023-01-31T03:08:02;5.70;92.20
68691;DHT22;55675;49.588;8.640;2023-01-31T03:10:44;5.60;92.30
68691;DHT22;55675;49.588;8.640;2023-01-31T03:13:20;5.50;92.30
68691;DHT22;55675;49.588;8.640;2023-01-31T03:18:36;5.40;92.40
68691;DHT22;55675;49.588;8.640;2023-01-31T03:21:06;5.30;92.40
68691;DHT22;55675;49.588;8.640;2023-01-31T03:23:34;5.20;92.50
68691;DHT22;55675;49.588;8.640;2023-01-31T03:26:02;5.20;92.50
68691;DHT22;55675;49.588;8.640;2023-01-31T03:28:29;5.10;92.60
68691;DHT22;55675;49.588;8.640;2023-01-31T03:33:43;5.00;92.60
68691;DHT22;55675;49.588;8.640;2023-01-31T03:36:11;4.90;92.60
68691;DHT22;55675;49.588;8.640;2023-01-31T03:41:23;4.80;93.00
68691;DHT22;55675;49.588;8.640;2023-01-31T03:43:53;4.80;92.70
68691;DHT22;55675;49.588;8.640;2023-01-31T03:46:21;4.80;92.70
68691;DHT22;55675;49.588;8.640;2023-01-31T03:48:49;4.70;92.70
68691;DHT22;55675;49.588;8.640;2023-01-31T03:51:20;4.60;92.80
68691;DHT22;55675;49.588;8.640;2023-01-31T03:53:49;4.60;92.90
68691;DHT22;55675;49.588;8.640;2023-01-31T03:56:20;4.60;92.90
68691;DHT22;55675;49.588;8.640;2023-01-31T03:58:48;4.50;93.00
68691;DHT22;55675;49.588;8.640;2023-01-31T04:01:15;4.50;93.00
68691;DHT22;55675;49.588;8.640;2023-01-31T04:03:42;4.40;92.90
68691;DHT22;55675;49.588;8.640;2023-01-31T04:06:09;4.40;93.00
68691;DHT22;55675;49.588;8.640;2023-01-31T04:08:35;4.40;93.00
68691;DHT22;55675;49.588;8.640;2023-01-31T04:11:04;4.30;93.00
68691;DHT22;55675;49.588;8.640;2023-01-31T04:13:30;4.30;93.10
68691;DHT22;55675;49.588;8.640;2023-01-31T04:15:55;4.30;93.10
68691;DHT22;55675;49.588;8.640;2023-01-31T04:18:21;4.20;93.10
68691;DHT22;55675;49.588;8.640;2023-01-31T04:20:46;4.10;93.10
68691;DHT22;55675;49.588;8.640;2023-01-31T04:23:11;4.10;93.20
68691;DHT22;55675;49.588;8.640;2023-01-31T04:25:37;4.10;93.20
68691;DHT22;55675;49.588;8.640;2023-01-31T04:28:02;4.00;93.20
68691;DHT22;55675;49.588;8.640;2023-01-31T04:30:28;4.00;93.30
68691;DHT22;55675;49.588;8.640;2023-01-31T04:32:54;4.00;93.40
68691;DHT22;55675;49.588;8.640;2023-01-31T04:35:19;3.90;93.40
68691;DHT22;55675;49.588;8.640;2023-01-31T04:37:45;3.90;93.50
68691;DHT22;55675;49.588;8.640;2023-01-31T04:40:10;3.90;93.50
68691;DHT22;55675;49.588;8.640;2023-01-31T04:42:38;3.90;93.50
68691;DHT22;55675;49.588;8.640;2023-01-31T04:45:03;3.80;93.50
68691;DHT22;55675;49.588;8.640;2023-01-31T04:47:29;3.80;93.40
68691;DHT22;55675;49.588;8.640;2023-01-31T04:49:54;3.70;93.40
68691;DHT22;55675;49.588;8.640;2023-01-31T04:52:20;3.70;93.40
68691;DHT22;55675;49.588;8.640;2023-01-31T04:54:45;3.60;93.40
68691;DHT22;55675;49.588;8.640;2023-01-31T04:57:11;3.60;93.50
68691;DHT22;55675;49.588;8.640;2023-01-31T04:59:36;3.50;93.50
68691;DHT22;55675;49.588;8.640;2023-01-31T05:02:02;3.40;93.50
68691;DHT22;55675;49.588;8.640;2023-01-31T05:04:27;3.40;93.50
68691;DHT22;55675;49.588;8.640;2023-01-31T05:06:53;3.40;93.60
68691;DHT22;55675;49.588;8.640;2023-01-31T05:09:19;3.30;93.60
68691;DHT22;55675;49.588;8.640;2023-01-31T05:11:45;3.30;93.60
68691;DHT22;55675;49.588;8.640;2023-01-31T05:14:10;3.30;93.60
68691;DHT22;55675;49.588;8.640;2023-01-31T05:16:37;3.20;93.70
68691;DHT22;55675;49.588;8.640;2023-01-31T05:19:03;3.20;93.70
68691;DHT22;55675;49.588;8.640;2023-01-31T05:21:28;3.20;93.80
68691;DHT22;55675;49.588;8.640;2023-01-31T05:23:54;3.20;93.90
68691;DHT22;55675;49.588;8.640;2023-01-31T05:26:19;3.20;93.90
68691;DHT22;55675;49.588;8.640;2023-01-31T05:28:45;3.20;93.90
68691;DHT22;55675;49.588;8.640;2023-01-31T05:31:10;3.20;94.00
68691;DHT22;55675;49.588;8.640;2023-01-31T05:33:37;3.20;94.00
68691;DHT22;55675;49.588;8.640;2023-01-31T05:36:02;3.20;94.00
68691;DHT22;55675;49.588;8.640;2023-01-31T05:38:28;3.10;94.10
68691;DHT22;55675;49.588;8.640;2023-01-31T05:40:53;3.10;94.20
68691;DHT22;55675;49.588;8.640;2023-01-31T05:43:19;3.10;94.10
68691;DHT22;55675;49.588;8.640;2023-01-31T05:45:46;3.10;94.30
68691;DHT22;55675;49.588;8.640;2023-01-31T05:48:11;3.10;94.30
68691;DHT22;55675;49.588;8.640;2023-01-31T05:50:37;3.10;94.40
68691;DHT22;55675;49.588;8.640;2023-01-31T05:53:02;3.10;94.40
68691;DHT22;55675;49.588;8.640;2023-01-31T05:55:28;3.20;94.40
68691;DHT22;55675;49.588;8.640;2023-01-31T05:57:53;3.00;94.40
68691;DHT22;55675;49.588;8.640;2023-01-31T06:00:19;3.00;94.40
68691;DHT22;55675;49.588;8.640;2023-01-31T06:02:45;3.00;94.50
68691;DHT22;55675;49.588;8.640;2023-01-31T06:05:10;3.00;94.60
68691;DHT22;55675;49.588;8.640;2023-01-31T06:07:36;2.90;94.60
68691;DHT22;55675;49.588;8.640;2023-01-31T06:10:02;3.00;94.70
68691;DHT22;55675;49.588;8.640;2023-01-31T06:12:27;3.00;94.80
68691;DHT22;55675;49.588;8.640;2023-01-31T06:14:53;3.10;94.80
68691;DHT22;55675;49.588;8.640;2023-01-31T06:17:18;3.30;94.80
68691;DHT22;55675;49.588;8.640;2023-01-31T06:19:44;3.40;94.70
68691;DHT22;55675;49.588;8.640;2023-01-31T06:22:09;3.50;94.70
68691;DHT22;55675;49.588;8.640;2023-01-31T06:24:35;3.60;94.70
68691;DHT22;55675;49.588;8.640;2023-01-31T06:27:00;3.70;94.70
68691;DHT22;55675;49.588;8.640;2023-01-31T06:29:26;3.80;94.70
68691;DHT22;55675;49.588;8.640;2023-01-31T06:31:51;3.90;94.70
68691;DHT22;55675;49.588;8.640;2023-01-31T06:34:18;4.00;94.70
68691;DHT22;55675;49.588;8.640;2023-01-31T06:36:43;4.10;94.60
68691;DHT22;55675;49.588;8.640;2023-01-31T06:39:09;4.10;94.60
68691;DHT22;55675;49.588;8.640;2023-01-31T06:41:35;4.20;94.50
68691;DHT22;55675;49.588;8.640;2023-01-31T06:44:00;4.30;94.50
68691;DHT22;55675;49.588;8.640;2023-01-31T06:46:25;4.40;94.50
68691;DHT22;55675;49.588;8.640;2023-01-31T06:48:51;4.40;94.30
68691;DHT22;55675;49.588;8.640;2023-01-31T06:51:16;4.40;94.30
68691;DHT22;55675;49.588;8.640;2023-01-31T06:53:42;4.50;94.30
68691;DHT22;55675;49.588;8.640;2023-01-31T06:56:09;4.50;94.20
68691;DHT22;55675;49.588;8.640;2023-01-31T06:58:34;4.50;94.30
68691;DHT22;55675;49.588;8.640;2023-01-31T07:01:03;4.50;94.20
68691;DHT22;55675;49.588;8.640;2023-01-31T07:03:29;4.60;94.20
68691;DHT22;55675;49.588;8.640;2023-01-31T07:05:54;4.60;94.10
68691;DHT22;55675;49.588;8.640;2023-01-31T07:08:20;4.60;94.10
68691;DHT22;55675;49.588;8.640;2023-01-31T07:10:46;4.60;94.10
68691;DHT22;55675;49.588;8.640;2023-01-31T07:13:12;4.60;94.10
68691;DHT22;55675;49.588;8.640;2023-01-31T07:15:37;4.60;94.10
68691;DHT22;55675;49.588;8.640;2023-01-31T07:18:02;4.70;94.20
68691;DHT22;55675;49.588;8.640;2023-01-31T07:20:28;4.70;94.20
68691;DHT22;55675;49.588;8.640;2023-01-31T07:22:54;4.70;94.20
68691;DHT22;55675;49.588;8.640;2023-01-31T07:25:19;4.70;94.40
68691;DHT22;55675;49.588;8.640;2023-01-31T07:27:45;4.70;94.00
68691;DHT22;55675;49.588;8.640;2023-01-31T07:30:10;4.80;94.10
68691;DHT22;55675;49.588;8.640;2023-01-31T07:32:36;4.80;94.00
68691;DHT22;55675;49.588;8.640;2023-01-31T07:35:02;4.80;94.00
68691;DHT22;55675;49.588;8.640;2023-01-31T07:37:27;4.80;94.10
68691;DHT22;55675;49.588;8.640;2023-01-31T07:39:52;4.90;94.10
68691;DHT22;55675;49.588;8.640;2023-01-31T07:42:18;4.90;94.00
68691;DHT22;55675;49.588;8.640;2023-01-31T07:44:43;4.90;94.00
68691;DHT22;55675;49.588;8.640;2023-01-31T07:47:09;4.90;93.90
68691;DHT22;55675;49.588;8.640;2023-01-31T07:49:34;4.90;93.80
68691;DHT22;55675;49.588;8.640;2023-01-31T07:52:00;4.90;93.80
68691;DHT22;55675;49.588;8.640;2023-01-31T07:54:25;5.00;93.80
68691;DHT22;55675;49.588;8.640;2023-01-31T07:56:51;5.00;93.70
68691;DHT22;55675;49.588;8.640;2023-01-31T07:59:16;4.90;93.70
68691;DHT22;55675;49.588;8.640;2023-01-31T08:01:42;5.00;93.80
68691;DHT22;55675;49.588;8.640;2023-01-31T08:04:27;5.00;93.80
68691;DHT22;55675;49.588;8.640;2023-01-31T08:06:52;5.00;93.80
68691;DHT22;55675;49.588;8.640;2023-01-31T08:09:19;5.10;93.80
68691;DHT22;55675;49.588;8.640;2023-01-31T08:11:45;5.10;93.80
68691;DHT22;55675;49.588;8.640;2023-01-31T08:14:10;5.20;93.80
68691;DHT22;55675;49.588;8.640;2023-01-31T08:16:36;5.20;93.50
68691;DHT22;55675;49.588;8.640;2023-01-31T08:19:02;5.30;93.50
68691;DHT22;55675;49.588;8.640;2023-01-31T08:21:27;5.30;93.50
68691;DHT22;55675;49.588;8.640;2023-01-31T08:23:53;5.40;93.40
68691;DHT22;55675;49.588;8.640;2023-01-31T08:26:19;5.50;93.30
68691;DHT22;55675;49.588;8.640;2023-01-31T08:28:45;5.50;93.00
68691;DHT22;55675;49.588;8.640;2023-01-31T08:31:21;5.60;93.00
68691;DHT22;55675;49.588;8.640;2023-01-31T08:33:48;5.70;92.80
68691;DHT22;55675;49.588;8.640;2023-01-31T08:36:19;5.80;92.80
68691;DHT22;55675;49.588;8.640;2023-01-31T08:38:45;5.80;92.70
68691;DHT22;55675;49.588;8.640;2023-01-31T08:41:10;5.90;92.50
68691;DHT22;55675;49.588;8.640;2023-01-31T08:43:36;6.00;92.20
68691;DHT22;55675;49.588;8.640;2023-01-31T08:46:02;6.10;92.10
68691;DHT22;55675;49.588;8.640;2023-01-31T08:48:28;6.10;92.00
68691;DHT22;55675;49.588;8.640;2023-01-31T08:50:53;6.10;91.90
68691;DHT22;55675;49.588;8.640;2023-01-31T08:53:19;6.20;91.90
68691;DHT22;55675;49.588;8.640;2023-01-31T08:55:44;6.20;91.70
68691;DHT22;55675;49.588;8.640;2023-01-31T08:58:09;6.30;91.80
68691;DHT22;55675;49.588;8.640;2023-01-31T09:00:35;6.30;91.80
68691;DHT22;55675;49.588;8.640;2023-01-31T09:03:00;6.40;91.70
68691;DHT22;55675;49.588;8.640;2023-01-31T09:05:26;6.50;91.70
68691;DHT22;55675;49.588;8.640;2023-01-31T09:07:52;6.50;91.50
68691;DHT22;55675;49.588;8.640;2023-01-31T09:10:18;6.50;91.50
68691;DHT22;55675;49.588;8.640;2023-01-31T09:12:44;6.50;91.30
68691;DHT22;55675;49.588;8.640;2023-01-31T09:15:09;6.60;91.30
68691;DHT22;55675;49.588;8.640;2023-01-31T09:17:35;6.60;91.30
68691;DHT22;55675;49.588;8.640;2023-01-31T09:20:00;6.50;91.30
68691;DHT22;55675;49.588;8.640;2023-01-31T09:22:33;6.50;91.30
68691;DHT22;55675;49.588;8.640;2023-01-31T09:24:59;6.60;91.60
68691;DHT22;55675;49.588;8.640;2023-01-31T09:27:25;6.80;91.20
68691;DHT22;55675;49.588;8.640;2023-01-31T09:29:50;7.00;91.00
68691;DHT22;55675;49.588;8.640;2023-01-31T09:32:16;7.10;90.60
68691;DHT22;55675;49.588;8.640;2023-01-31T09:34:41;7.10;90.10
68691;DHT22;55675;49.588;8.640;2023-01-31T09:37:07;7.00;90.40
68691;DHT22;55675;49.588;8.640;2023-01-31T09:39:32;7.00;90.40
68691;DHT22;55675;49.588;8.640;2023-01-31T09:42:07;6.90;90.50
68691;DHT22;55675;49.588;8.640;2023-01-31T09:44:41;6.90;90.50
68691;DHT22;55675;49.588;8.640;2023-01-31T09:47:21;6.90;90.70
68691;DHT22;55675;49.588;8.640;2023-01-31T09:50:00;6.80;90.60
68691;DHT22;55675;49.588;8.640;2023-01-31T09:52:27;6.80;90.60
68691;DHT22;55675;49.588;8.640;2023-01-31T09:54:53;6.70;90.60
68691;DHT22;55675;49.588;8.640;2023-01-31T09:57:22;6.70;90.70
68691;DHT22;55675;49.588;8.640;2023-01-31T09:59:56;6.60;90.80
68691;DHT22;55675;49.588;8.640;2023-01-31T10:07:37;6.60;91.20
68691;DHT22;55675;49.588;8.640;2023-01-31T10:12:33;6.60;91.30
68691;DHT22;55675;49.588;8.640;2023-01-31T10:15:03;6.60;91.30
68691;DHT22;55675;49.588;8.640;2023-01-31T10:17:40;6.70;91.50
68691;DHT22;55675;49.588;8.640;2023-01-31T10:25:33;6.90;91.00
68691;DHT22;55675;49.588;8.640;2023-01-31T10:28:04;6.90;91.00
68691;DHT22;55675;49.588;8.640;2023-01-31T10:30:48;7.00;91.00
68691;DHT22;55675;49.588;8.640;2023-01-31T10:33:24;7.10;90.70
68691;DHT22;55675;49.588;8.640;2023-01-31T10:35:52;7.10;90.70
68691;DHT22;55675;49.588;8.640;2023-01-31T10:38:23;7.10;90.70
68691;DHT22;55675;49.588;8.640;2023-01-31T10:40:51;7.20;90.70
68691;DHT22;55675;49.588;8.640;2023-01-31T10:43:20;7.20;90.50
68691;DHT22;55675;49.588;8.640;2023-01-31T10:45:46;7.30;90.70
68691;DHT22;55675;49.588;8.640;2023-01-31T10:48:19;7.40;90.60
68691;DHT22;55675;49.588;8.640;2023-01-31T10:58:40;7.50;90.40
68691;DHT22;55675;49.588;8.640;2023-01-31T11:01:05;7.60;90.20
68691;DHT22;55675;49.588;8.640;2023-01-31T11:03:39;7.60;89.70
68691;DHT22;55675;49.588;8.640;2023-01-31T11:06:05;7.50;89.30
68691;DHT22;55675;49.588;8.640;2023-01-31T11:10:57;7.40;89.10
68691;DHT22;55675;49.588;8.640;2023-01-31T11:13:22;7.30;89.60
68691;DHT22;55675;49.588;8.640;2023-01-31T11:15:49;7.30;89.80
68691;DHT22;55675;49.588;8.640;2023-01-31T11:18:28;7.30;90.10
68691;DHT22;55675;49.588;8.640;2023-01-31T11:20:54;7.40;90.10
68691;DHT22;55675;49.588;8.640;2023-01-31T11:23:21;7.50;90.00
68691;DHT22;55675;49.588;8.640;2023-01-31T11:25:48;7.60;90.00
68691;DHT22;55675;49.588;8.640;2023-01-31T11:28:56;7.70;90.00
68691;DHT22;55675;49.588;8.640;2023-01-31T11:31:03;7.70;89.80
68691;DHT22;55675;49.588;8.640;2023-01-31T11:33:37;7.70;89.50
68691;DHT22;55675;49.588;8.640;2023-01-31T11:36:07;7.70;89.90
68691;DHT22;55675;49.588;8.640;2023-01-31T11:38:32;7.70;89.30
68691;DHT22;55675;49.588;8.640;2023-01-31T11:40:58;7.80;89.30
68691;DHT22;55675;49.588;8.640;2023-01-31T11:43:24;7.80;88.80
68691;DHT22;55675;49.588;8.640;2023-01-31T11:45:53;7.80;87.60
68691;DHT22;55675;49.588;8.640;2023-01-31T11:48:21;7.80;87.50
68691;DHT22;55675;49.588;8.640;2023-01-31T11:50:51;7.80;87.00
68691;DHT22;55675;49.588;8.640;2023-01-31T11:53:19;7.80;87.10
68691;DHT22;55675;49.588;8.640;2023-01-31T11:55:45;7.80;86.70
68691;DHT22;55675;49.588;8.640;2023-01-31T11:58:18;7.90;87.20
68691;DHT22;55675;49.588;8.640;2023-01-31T12:00:52;7.90;87.30
68691;DHT22;55675;49.588;8.640;2023-01-31T12:03:18;7.90;86.80
68691;DHT22;55675;49.588;8.640;2023-01-31T12:05:45;7.90;87.00
68691;DHT22;55675;49.588;8.640;2023-01-31T12:10:54;7.80;87.00
68691;DHT22;55675;49.588;8.640;2023-01-31T12:13:21;7.80;87.50
68691;DHT22;55675;49.588;8.640;2023-01-31T12:15:56;7.80;87.60
68691;DHT22;55675;49.588;8.640;2023-01-31T12:31:39;7.60;88.10
68691;DHT22;55675;49.588;8.640;2023-01-31T12:34:13;7.60;88.30
68691;DHT22;55675;49.588;8.640;2023-01-31T12:41:51;7.50;88.80
68691;DHT22;55675;49.588;8.640;2023-01-31T12:49:20;7.50;89.20
68691;DHT22;55675;49.588;8.640;2023-01-31T13:04:55;7.70;88.60
68691;DHT22;55675;49.588;8.640;2023-01-31T13:07:25;7.70;88.50
68691;DHT22;55675;49.588;8.640;2023-01-31T13:09:52;7.70;88.50
68691;DHT22;55675;49.588;8.640;2023-01-31T13:12:21;7.60;88.30
68691;DHT22;55675;49.588;8.640;2023-01-31T13:15:35;7.60;87.90
68691;DHT22;55675;49.588;8.640;2023-01-31T13:17:38;7.50;87.80
68691;DHT22;55675;49.588;8.640;2023-01-31T13:22:40;7.40;87.90
68691;DHT22;55675;49.588;8.640;2023-01-31T13:25:14;7.50;88.20
68691;DHT22;55675;49.588;8.640;2023-01-31T13:27:41;7.50;87.60
68691;DHT22;55675;49.588;8.640;2023-01-31T13:30:20;7.40;87.80
68691;DHT22;55675;49.588;8.640;2023-01-31T13:32:48;7.40;88.40
68691;DHT22;55675;49.588;8.640;2023-01-31T13:35:16;7.50;88.00
68691;DHT22;55675;49.588;8.640;2023-01-31T13:37:43;7.50;87.80
68691;DHT22;55675;49.588;8.640;2023-01-31T13:40:15;7.50;87.60
68691;DHT22;55675;49.588;8.640;2023-01-31T13:42:41;7.60;87.30
68691;DHT22;55675;49.588;8.640;2023-01-31T13:45:07;7.60;87.40
68691;DHT22;55675;49.588;8.640;2023-01-31T13:47:52;7.60;87.30
68691;DHT22;55675;49.588;8.640;2023-01-31T13:50:29;7.50;87.50
68691;DHT22;55675;49.588;8.640;2023-01-31T13:52:57;7.50;87.40
68691;DHT22;55675;49.588;8.640;2023-01-31T13:55:36;7.50;87.70
68691;DHT22;55675;49.588;8.640;2023-01-31T13:58:03;7.40;87.60
68691;DHT22;55675;49.588;8.640;2023-01-31T14:03:02;7.30;87.80
68691;DHT22;55675;49.588;8.640;2023-01-31T14:10:59;7.30;88.80
68691;DHT22;55675;49.588;8.640;2023-01-31T14:13:26;7.30;88.60
68691;DHT22;55675;49.588;8.640;2023-01-31T14:15:52;7.20;88.70
68691;DHT22;55675;49.588;8.640;2023-01-31T14:23:46;7.10;88.50
68691;DHT22;55675;49.588;8.640;2023-01-31T14:26:34;7.20;89.00
68691;DHT22;55675;49.588;8.640;2023-01-31T14:28:57;7.20;88.70
68691;DHT22;55675;49.588;8.640;2023-01-31T14:31:23;7.20;88.50
68691;DHT22;55675;49.588;8.640;2023-01-31T14:33:48;7.10;88.70
68691;DHT22;55675;49.588;8.640;2023-01-31T14:36:30;7.10;89.00
68691;DHT22;55675;49.588;8.640;2023-01-31T14:57:19;7.20;89.90
68691;DHT22;55675;49.588;8.640;2023-01-31T15:04:43;7.10;90.50
68691;DHT22;55675;49.588;8.640;2023-01-31T15:07:13;7.10;90.80
68691;DHT22;55675;49.588;8.640;2023-01-31T15:09:40;7.10;91.30
68691;DHT22;55675;49.588;8.640;2023-01-31T15:12:48;7.00;91.50
68691;DHT22;55675;49.588;8.640;2023-01-31T15:14:51;7.10;91.70
68691;DHT22;55675;49.588;8.640;2023-01-31T15:17:18;7.00;91.90
68691;DHT22;55675;49.588;8.640;2023-01-31T15:19:49;7.00;92.00
68691;DHT22;55675;49.588;8.640;2023-01-31T15:22:16;7.00;92.10
68691;DHT22;55675;49.588;8.640;2023-01-31T15:24:44;7.00;92.40
68691;DHT22;55675;49.588;8.640;2023-01-31T15:27:12;6.90;92.40
68691;DHT22;55675;49.588;8.640;2023-01-31T15:29:47;6.90;92.70
68691;DHT22;55675;49.588;8.640;2023-01-31T15:32:16;6.90;92.90
68691;DHT22;55675;49.588;8.640;2023-01-31T15:34:46;6.90;93.10
68691;DHT22;55675;49.588;8.640;2023-01-31T15:37:17;6.80;93.10
68691;DHT22;55675;49.588;8.640;2023-01-31T15:39:53;6.80;93.20
68691;DHT22;55675;49.588;8.640;2023-01-31T15:44:48;6.80;93.60
68691;DHT22;55675;49.588;8.640;2023-01-31T15:47:20;6.80;93.70
68691;DHT22;55675;49.588;8.640;2023-01-31T15:49:46;6.80;93.80
68691;DHT22;55675;49.588;8.640;2023-01-31T15:52:13;6.80;93.80
68691;DHT22;55675;49.588;8.640;2023-01-31T15:54:49;6.80;93.90
68691;DHT22;55675;49.588;8.640;2023-01-31T15:57:15;6.80;93.90
68691;DHT22;55675;49.588;8.640;2023-01-31T15:59:41;6.80;94.00
68691;DHT22;55675;49.588;8.640;2023-01-31T16:02:09;6.80;94.10
68691;DHT22;55675;49.588;8.640;2023-01-31T16:04:38;6.80;94.00
68691;DHT22;55675;49.588;8.640;2023-01-31T16:07:04;6.80;94.00
68691;DHT22;55675;49.588;8.640;2023-01-31T16:09:30;6.80;94.10
68691;DHT22;55675;49.588;8.640;2023-01-31T16:11:59;6.80;94.00
68691;DHT22;55675;49.588;8.640;2023-01-31T16:14:25;6.80;94.10
68691;DHT22;55675;49.588;8.640;2023-01-31T16:16:56;6.80;94.30
68691;DHT22;55675;49.588;8.640;2023-01-31T16:19:26;6.80;94.30
68691;DHT22;55675;49.588;8.640;2023-01-31T16:21:53;6.80;94.40
68691;DHT22;55675;49.588;8.640;2023-01-31T16:24:20;6.90;94.70
68691;DHT22;55675;49.588;8.640;2023-01-31T16:29:24;6.90;94.40
68691;DHT22;55675;49.588;8.640;2023-01-31T16:31:55;6.90;94.50
68691;DHT22;55675;49.588;8.640;2023-01-31T16:39:22;6.90;94.60
68691;DHT22;55675;49.588;8.640;2023-01-31T16:41:51;6.90;94.70
68691;DHT22;55675;49.588;8.640;2023-01-31T16:44:17;6.90;94.70
68691;DHT22;55675;49.588;8.640;2023-01-31T16:46:44;7.00;94.70
68691;DHT22;55675;49.588;8.640;2023-01-31T16:49:21;7.00;94.70
68691;DHT22;55675;49.588;8.640;2023-01-31T16:51:47;7.00;94.70
68691;DHT22;55675;49.588;8.640;2023-01-31T16:54:14;7.10;94.80
68691;DHT22;55675;49.588;8.640;2023-01-31T16:56:40;7.10;94.70
68691;DHT22;55675;49.588;8.640;2023-01-31T16:59:36;7.10;94.70
68691;DHT22;55675;49.588;8.640;2023-01-31T17:01:58;7.10;94.50
68691;DHT22;55675;49.588;8.640;2023-01-31T17:04:25;7.10;94.40
68691;DHT22;55675;49.588;8.640;2023-01-31T17:06:59;7.10;94.40
68691;DHT22;55675;49.588;8.640;2023-01-31T17:09:26;7.10;94.30
68691;DHT22;55675;49.588;8.640;2023-01-31T17:11:52;7.10;94.30
68691;DHT22;55675;49.588;8.640;2023-01-31T17:14:18;7.10;94.30
68691;DHT22;55675;49.588;8.640;2023-01-31T17:16:44;7.20;94.20
68691;DHT22;55675;49.588;8.640;2023-01-31T17:19:11;7.20;94.20
68691;DHT22;55675;49.588;8.640;2023-01-31T17:21:38;7.20;94.30
68691;DHT22;55675;49.588;8.640;2023-01-31T17:24:05;7.20;94.30
68691;DHT22;55675;49.588;8.640;2023-01-31T17:26:30;7.20;94.20
68691;DHT22;55675;49.588;8.640;2023-01-31T17:28:55;7.30;94.20
68691;DHT22;55675;49.588;8.640;2023-01-31T17:31:22;7.20;94.00
68691;DHT22;55675;49.588;8.640;2023-01-31T17:33:48;7.20;94.10
68691;DHT22;55675;49.588;8.640;2023-01-31T17:36:13;7.30;94.40
68691;DHT22;55675;49.588;8.640;2023-01-31T17:38:39;7.30;94.00
68691;DHT22;55675;49.588;8.640;2023-01-31T17:41:07;7.30;94.10
68691;DHT22;55675;49.588;8.640;2023-01-31T17:43:33;7.30;94.00
68691;DHT22;55675;49.588;8.640;2023-01-31T17:45:59;7.40;94.00
68691;DHT22;55675;49.588;8.640;2023-01-31T17:48:24;7.40;94.00
68691;DHT22;55675;49.588;8.640;2023-01-31T17:50:50;7.40;93.90
68691;DHT22;55675;49.588;8.640;2023-01-31T17:53:15;7.50;94.00
68691;DHT22;55675;49.588;8.640;2023-01-31T17:55:40;7.50;93.90
68691;DHT22;55675;49.588;8.640;2023-01-31T17:58:06;7.50;94.00
68691;DHT22;55675;49.588;8.640;2023-01-31T18:00:33;7.50;94.10
68691;DHT22;55675;49.588;8.640;2023-01-31T18:02:58;7.50;94.10